createdAt,value
2023-02-11T00:00:43.330Z,75.00
2023-02-11T00:01:45.698Z,70.60
2023-02-11T00:02:48.300Z,73.53
2023-02-11T00:03:51.163Z,75.38
2023-02-11T00:04:53.617Z,71.78
2023-02-11T00:06:04.709Z,70.75
2023-02-11T00:07:07.289Z,73.18
2023-02-11T00:08:09.651Z,70.05
2023-02-11T00:09:12.634Z,77.30
2023-02-11T00:10:15.101Z,77.25
2023-02-11T00:11:19.011Z,76.75
2023-02-11T00:12:21.696Z,79.97
2023-02-11T00:13:24.867Z,74.68
2023-02-11T00:14:27.546Z,67.70
2023-02-11T00:15:29.963Z,68.85
2023-02-11T00:16:33.047Z,70.70
2023-02-11T00:17:35.970Z,70.80
2023-02-11T00:18:38.716Z,73.28
2023-02-11T00:19:41.367Z,72.10
2023-02-11T00:20:43.913Z,68.82
2023-02-11T00:21:46.428Z,73.22
2023-02-11T00:22:48.773Z,72.10
2023-02-11T00:23:51.779Z,68.43
2023-02-11T00:24:54.368Z,68.13
2023-02-11T00:25:56.765Z,71.22
2023-02-11T00:26:59.253Z,70.07
2023-02-11T00:28:01.701Z,67.35
2023-02-11T00:29:05.359Z,64.43
2023-02-11T00:30:08.445Z,70.90
2023-02-11T00:31:11.947Z,73.00
2023-02-11T00:32:14.522Z,67.07
2023-02-11T00:33:16.830Z,72.47
2023-02-11T00:34:19.642Z,66.13
2023-02-11T00:35:22.447Z,66.68
2023-02-11T00:36:27.372Z,66.47
2023-02-11T00:37:30.130Z,70.78
2023-02-11T00:38:32.674Z,68.38
2023-02-11T00:39:37.204Z,72.10
2023-02-11T00:40:39.782Z,60.63
2023-02-11T00:41:42.222Z,63.72
2023-02-11T00:42:44.680Z,59.80
2023-02-11T00:43:47.415Z,61.10
2023-02-11T00:44:49.969Z,60.30
2023-02-11T00:45:52.771Z,58.15
2023-02-11T00:46:55.339Z,68.95
2023-02-11T00:47:57.918Z,58.83
2023-02-11T00:49:00.370Z,60.53
2023-02-11T00:50:05.424Z,70.82
2023-02-11T00:51:08.378Z,64.93
2023-02-11T00:52:10.785Z,61.22
2023-02-11T00:53:13.236Z,64.88
2023-02-11T00:54:15.598Z,67.20
2023-02-11T00:55:19.008Z,65.53
2023-02-11T00:56:21.537Z,61.25
2023-02-11T00:57:24.901Z,63.95
2023-02-11T00:58:28.419Z,59.13
2023-02-11T00:59:30.974Z,59.47
2023-02-11T01:00:33.489Z,64.60
2023-02-11T01:01:36.114Z,62.10
2023-02-11T01:02:38.699Z,65.95
2023-02-11T01:03:41.624Z,69.55
2023-02-11T01:04:44.090Z,72.35
2023-02-11T01:05:46.687Z,63.10
2023-02-11T01:06:49.200Z,56.50
2023-02-11T01:07:51.610Z,63.90
2023-02-11T01:08:54.102Z,63.47
2023-02-11T01:09:57.058Z,63.92
2023-02-11T01:11:02.916Z,59.88
2023-02-11T01:12:05.780Z,60.72
2023-02-11T01:13:08.073Z,61.00
2023-02-11T01:14:10.630Z,65.40
2023-02-11T01:15:16.931Z,70.32
2023-02-11T01:16:21.023Z,56.22
2023-02-11T01:17:24.008Z,60.65
2023-02-11T01:18:26.900Z,62.63
2023-02-11T01:19:29.436Z,61.05
2023-02-11T01:20:32.097Z,61.90
2023-02-11T01:21:34.555Z,58.60
2023-02-11T01:22:39.714Z,65.95
2023-02-11T01:23:42.690Z,66.43
2023-02-11T01:24:47.433Z,63.25
2023-02-11T01:25:50.844Z,54.58
2023-02-11T01:26:54.081Z,60.08
2023-02-11T01:27:56.690Z,61.10
2023-02-11T01:29:01.079Z,62.42
2023-02-11T01:31:06.552Z,55.33
2023-02-11T01:32:09.207Z,61.10
2023-02-11T01:33:12.775Z,57.25
2023-02-11T01:34:15.329Z,63.85
2023-02-11T01:35:17.841Z,62.97
2023-02-11T01:36:20.432Z,54.17
2023-02-11T01:37:23.217Z,65.30
2023-02-11T01:38:26.750Z,61.80
2023-02-11T01:39:29.132Z,64.95
2023-02-11T01:40:31.624Z,62.55
2023-02-11T01:41:34.016Z,57.80
2023-02-11T01:42:36.402Z,54.80
2023-02-11T01:43:42.740Z,55.38
2023-02-11T01:44:45.369Z,57.75
2023-02-11T01:45:47.661Z,55.22
2023-02-11T01:46:50.279Z,59.17
2023-02-11T01:47:54.904Z,58.20
2023-02-11T01:49:18.704Z,59.53
2023-02-11T01:50:21.242Z,51.90
2023-02-11T01:51:45.018Z,58.90
2023-02-11T01:52:48.072Z,51.55
2023-02-11T01:54:10.895Z,54.70
2023-02-11T01:55:33.102Z,55.15
2023-02-11T01:57:01.415Z,53.92
2023-02-11T01:58:05.384Z,50.42
2023-02-11T01:59:17.517Z,58.67
2023-02-11T02:00:33.902Z,55.40
2023-02-11T02:01:39.134Z,58.13
2023-02-11T02:02:52.889Z,56.72
2023-02-11T02:04:00.853Z,64.53
2023-02-11T02:05:16.852Z,57.95
2023-02-11T02:06:26.651Z,56.30
2023-02-11T02:07:43.104Z,63.05
2023-02-11T02:08:57.906Z,58.65
2023-02-11T02:10:07.775Z,56.95
2023-02-11T02:11:11.938Z,56.47
2023-02-11T02:12:14.429Z,63.40
2023-02-11T02:13:17.935Z,55.60
2023-02-11T02:14:20.858Z,60.53
2023-02-11T02:15:25.374Z,56.22
2023-02-11T02:17:46.716Z,54.50
2023-02-11T02:19:23.325Z,56.20
2023-02-11T02:20:50.307Z,51.45
2023-02-11T02:22:10.789Z,57.95
2023-02-11T02:23:31.944Z,57.33
2023-02-11T02:25:01.205Z,49.83
2023-02-11T02:26:22.222Z,52.90
2023-02-11T02:27:46.051Z,55.40
2023-02-11T02:28:48.269Z,56.95
2023-02-11T02:30:12.151Z,53.75
2023-02-11T02:31:52.574Z,47.88
2023-02-11T02:33:21.606Z,49.25
2023-02-11T02:34:57.505Z,55.88
2023-02-11T02:36:22.719Z,55.63
2023-02-11T02:37:34.914Z,55.10
2023-02-11T02:38:39.989Z,56.55
2023-02-11T02:40:50.554Z,56.97
2023-02-11T02:41:54.627Z,56.65
2023-02-11T02:42:58.946Z,50.42
2023-02-11T02:44:01.988Z,55.65
2023-02-11T02:45:04.809Z,56.22
2023-02-11T02:46:31.808Z,58.25
2023-02-11T02:47:34.194Z,51.03
2023-02-11T02:48:36.429Z,51.33
2023-02-11T02:49:38.727Z,55.63
2023-02-11T02:50:41.378Z,62.95
2023-02-11T02:52:00.344Z,56.67
2023-02-11T02:53:11.892Z,56.17
2023-02-11T02:54:34.320Z,51.63
2023-02-11T02:56:12.553Z,53.25
2023-02-11T02:57:33.015Z,53.53
2023-02-11T02:58:54.135Z,48.20
2023-02-11T03:00:14.793Z,55.13
2023-02-11T03:01:30.020Z,56.80
2023-02-11T03:02:50.587Z,57.80
2023-02-11T03:04:27.249Z,52.63
2023-02-11T03:05:51.352Z,53.00
2023-02-11T03:07:16.490Z,51.03
2023-02-11T03:08:32.677Z,55.00
2023-02-11T03:09:46.114Z,53.97
2023-02-11T03:10:51.651Z,48.65
2023-02-11T03:11:54.351Z,60.80
2023-02-11T03:12:58.062Z,52.33
2023-02-11T03:14:03.860Z,51.20
2023-02-11T03:15:07.588Z,57.13
2023-02-11T03:16:15.442Z,59.45
2023-02-11T03:17:19.197Z,58.20
2023-02-11T03:18:26.543Z,56.40
2023-02-11T03:19:38.744Z,56.33
2023-02-11T03:20:44.726Z,58.33
2023-02-11T03:21:50.162Z,59.67
2023-02-11T03:22:56.175Z,55.53
2023-02-11T03:24:03.001Z,55.30
2023-02-11T03:25:05.932Z,60.08
2023-02-11T03:26:49.033Z,53.78
2023-02-11T03:28:12.147Z,52.97
2023-02-11T03:29:23.017Z,49.25
2023-02-11T03:31:54.786Z,51.85
2023-02-11T03:33:14.577Z,54.92
2023-02-11T03:34:26.718Z,60.38
2023-02-11T03:35:52.478Z,58.42
2023-02-11T03:37:00.089Z,51.58
2023-02-11T03:38:07.747Z,56.13
2023-02-11T03:39:12.281Z,54.13
2023-02-11T03:41:24.979Z,51.75
2023-02-11T03:42:33.604Z,56.30
2023-02-11T03:43:42.283Z,59.78
2023-02-11T03:44:52.081Z,66.47
2023-02-11T03:45:56.555Z,52.75
2023-02-11T03:48:07.687Z,50.53
2023-02-11T03:49:14.001Z,52.03
2023-02-11T03:50:18.304Z,55.30
2023-02-11T03:51:23.666Z,56.58
2023-02-11T03:52:27.192Z,60.45
2023-02-11T03:53:29.551Z,69.75
2023-02-11T03:54:32.139Z,62.85
2023-02-11T03:55:38.896Z,55.17
2023-02-11T03:56:52.399Z,59.85
2023-02-11T03:57:54.803Z,57.53
2023-02-11T03:58:57.623Z,57.00
2023-02-11T04:00:00.690Z,58.72
2023-02-11T04:01:05.377Z,56.40
2023-02-11T04:02:07.752Z,60.22
2023-02-11T04:03:11.386Z,52.08
2023-02-11T04:04:14.137Z,58.83
2023-02-11T04:05:16.733Z,60.35
2023-02-11T04:06:19.202Z,59.17
2023-02-11T04:07:21.714Z,54.13
2023-02-11T04:08:24.056Z,53.63
2023-02-11T04:09:26.349Z,58.85
2023-02-11T04:10:28.643Z,56.58
2023-02-11T04:11:31.054Z,59.38
2023-02-11T04:12:33.626Z,56.33
2023-02-11T04:13:35.961Z,55.08
2023-02-11T04:14:38.364Z,56.63
2023-02-11T04:15:40.926Z,55.72
2023-02-11T04:16:43.391Z,66.38
2023-02-11T04:17:46.187Z,59.28
2023-02-11T04:18:48.881Z,59.88
2023-02-11T04:19:51.520Z,51.72
2023-02-11T04:20:54.036Z,60.38
2023-02-11T04:21:56.836Z,54.78
2023-02-11T04:22:59.412Z,57.95
2023-02-11T04:24:01.916Z,60.50
2023-02-11T04:25:06.092Z,61.63
2023-02-11T04:26:08.466Z,56.38
2023-02-11T04:27:10.848Z,57.55
2023-02-11T04:28:13.302Z,53.03
2023-02-11T04:29:16.208Z,58.25
2023-02-11T04:30:18.765Z,56.90
2023-02-11T04:31:21.398Z,58.03
2023-02-11T04:32:23.835Z,60.95
2023-02-11T04:33:26.429Z,54.85
2023-02-11T04:34:29.201Z,57.80
2023-02-11T04:35:31.763Z,56.45
2023-02-11T04:36:34.200Z,51.88
2023-02-11T04:37:36.559Z,57.08
2023-02-11T04:38:38.971Z,58.47
2023-02-11T04:39:41.637Z,57.03
2023-02-11T04:40:44.054Z,57.72
2023-02-11T04:41:46.665Z,65.30
2023-02-11T04:42:49.016Z,56.22
2023-02-11T04:43:51.630Z,61.08
2023-02-11T04:44:54.066Z,63.05
2023-02-11T04:45:59.442Z,76.05
2023-02-11T04:47:02.590Z,73.35
2023-02-11T04:48:05.160Z,74.00
2023-02-11T04:49:07.774Z,67.82
2023-02-11T04:50:10.474Z,76.55
2023-02-11T04:51:12.850Z,68.72
2023-02-11T04:52:15.237Z,72.57
2023-02-11T04:53:17.636Z,72.03
2023-02-11T04:54:20.368Z,71.57
2023-02-11T04:55:22.940Z,72.40
2023-02-11T04:56:25.408Z,65.43
2023-02-11T04:57:27.734Z,67.22
2023-02-11T04:58:30.181Z,67.63
2023-02-11T04:59:32.968Z,64.55
2023-02-11T05:00:35.361Z,70.20
2023-02-11T05:01:37.749Z,66.45
2023-02-11T05:02:40.232Z,65.22
2023-02-11T05:03:43.510Z,75.53
2023-02-11T05:04:45.825Z,69.00
2023-02-11T05:05:48.547Z,73.60
2023-02-11T05:06:51.166Z,73.82
2023-02-11T05:07:54.342Z,70.10
2023-02-11T05:08:57.158Z,69.20
2023-02-11T05:10:00.201Z,74.63
2023-02-11T05:11:06.050Z,79.65
2023-02-11T05:12:08.460Z,74.25
2023-02-11T05:13:10.871Z,74.40
2023-02-11T05:14:13.383Z,69.65
2023-02-11T05:15:16.157Z,70.07
2023-02-11T05:16:19.131Z,61.65
2023-02-11T05:17:21.604Z,72.70
2023-02-11T05:18:24.371Z,76.80
2023-02-11T05:19:26.860Z,73.10
2023-02-11T05:20:29.320Z,73.43
2023-02-11T05:21:31.748Z,81.40
2023-02-11T05:22:34.100Z,70.30
2023-02-11T05:23:36.970Z,74.75
2023-02-11T05:24:39.441Z,69.32
2023-02-11T05:25:41.776Z,80.80
2023-02-11T05:26:44.329Z,71.65
2023-02-11T05:27:46.736Z,73.40
2023-02-11T05:28:49.547Z,70.05
2023-02-11T05:29:51.943Z,72.90
2023-02-11T05:30:54.567Z,75.13
2023-02-11T05:31:58.521Z,82.00
2023-02-11T05:33:00.985Z,71.28
2023-02-11T05:34:04.258Z,67.28
2023-02-11T05:35:06.949Z,77.68
2023-02-11T05:36:12.051Z,73.82
2023-02-11T05:37:14.517Z,73.55
2023-02-11T05:38:17.318Z,76.85
2023-02-11T05:39:19.797Z,73.55
2023-02-11T05:40:22.197Z,83.32
2023-02-11T05:41:24.596Z,84.47
2023-02-11T05:42:27.381Z,82.93
2023-02-11T05:43:29.833Z,80.82
2023-02-11T05:44:32.344Z,76.63
2023-02-11T05:45:34.821Z,74.90
2023-02-11T05:46:37.539Z,80.13
2023-02-11T05:47:40.053Z,87.28
2023-02-11T05:48:42.443Z,78.65
2023-02-11T05:49:45.086Z,88.35
2023-02-11T05:50:47.687Z,82.45
2023-02-11T05:51:50.165Z,87.70
2023-02-11T05:52:52.748Z,84.97
2023-02-11T05:53:55.856Z,83.68
2023-02-11T05:54:58.361Z,78.25
2023-02-11T05:56:00.842Z,93.10
2023-02-11T05:57:03.392Z,84.10
2023-02-11T05:58:06.264Z,92.05
2023-02-11T05:59:08.811Z,93.18
2023-02-11T06:00:11.976Z,93.78
2023-02-11T06:01:17.516Z,86.70
2023-02-11T06:02:20.190Z,91.82
2023-02-11T06:03:22.629Z,86.30
2023-02-11T06:04:25.003Z,93.82
2023-02-11T06:05:27.519Z,114.50
2023-02-11T06:06:30.138Z,122.15
2023-02-11T06:07:32.584Z,138.75
2023-02-11T06:08:36.480Z,110.05
2023-02-11T06:09:40.918Z,111.25
2023-02-11T06:10:45.678Z,99.80
2023-02-11T06:11:48.079Z,98.78
2023-02-11T06:12:50.437Z,93.88
2023-02-11T06:13:52.754Z,103.60
2023-02-11T06:14:55.103Z,98.30
2023-02-11T06:15:58.792Z,90.68
2023-02-11T06:17:01.394Z,88.75
2023-02-11T06:18:04.245Z,90.45
2023-02-11T06:19:06.635Z,101.68
2023-02-11T06:20:10.749Z,91.95
2023-02-11T06:21:13.248Z,99.55
2023-02-11T06:22:15.925Z,97.30
2023-02-11T06:23:18.545Z,109.07
2023-02-11T06:24:47.815Z,99.90
2023-02-11T06:25:43.274Z,100.05
2023-02-11T06:26:45.977Z,104.25
2023-02-11T06:27:48.290Z,107.55
2023-02-11T06:28:50.797Z,106.57
2023-02-11T06:29:53.169Z,103.38
2023-02-11T06:30:55.593Z,103.80
2023-02-11T06:31:58.182Z,117.03
2023-02-11T06:33:00.669Z,109.45
2023-02-11T06:34:03.060Z,124.18
2023-02-11T06:35:05.687Z,124.40
2023-02-11T06:36:19.873Z,122.72
2023-02-11T06:37:22.329Z,115.60
2023-02-11T06:38:24.666Z,108.32
2023-02-11T06:39:27.402Z,107.28
2023-02-11T06:40:29.922Z,118.38
2023-02-11T06:41:35.361Z,141.38
2023-02-11T06:42:39.429Z,133.65
2023-02-11T06:43:42.044Z,138.90
2023-02-11T06:44:44.760Z,119.95
2023-02-11T06:45:53.666Z,112.07
2023-02-11T06:46:56.044Z,106.57
2023-02-11T06:47:58.512Z,79.22
2023-02-11T06:49:00.957Z,88.47
2023-02-11T06:50:04.764Z,88.38
2023-02-11T06:51:13.237Z,86.30
2023-02-11T06:52:15.595Z,92.40
2023-02-11T06:53:17.933Z,85.45
2023-02-11T06:54:20.456Z,83.80
2023-02-11T06:55:22.790Z,78.47
2023-02-11T06:56:27.617Z,70.75
2023-02-11T06:57:31.149Z,68.95
2023-02-11T06:58:34.159Z,63.80
2023-02-11T06:59:36.574Z,62.25
2023-02-11T07:00:39.055Z,67.07
2023-02-11T07:01:42.105Z,66.07
2023-02-11T07:02:44.686Z,72.53
2023-02-11T07:03:47.457Z,68.47
2023-02-11T07:04:50.044Z,67.82
2023-02-11T07:05:52.659Z,83.90
2023-02-11T07:06:55.297Z,83.28
2023-02-11T07:07:57.638Z,81.00
2023-02-11T07:09:00.325Z,75.07
2023-02-11T07:10:06.038Z,68.28
2023-02-11T07:11:11.207Z,68.13
2023-02-11T07:12:13.520Z,63.72
2023-02-11T07:13:16.009Z,63.22
2023-02-11T07:14:18.674Z,70.20
2023-02-11T07:15:21.209Z,69.25
2023-02-11T07:16:23.963Z,58.60
2023-02-11T07:17:26.429Z,63.25
2023-02-11T07:18:31.848Z,64.65
2023-02-11T07:19:34.261Z,76.15
2023-02-11T07:20:38.916Z,68.00
2023-02-11T07:21:41.247Z,69.18
2023-02-11T07:22:43.577Z,76.55
2023-02-11T07:23:46.752Z,70.13
2023-02-11T07:24:49.059Z,66.97
2023-02-11T07:25:51.775Z,64.97
2023-02-11T07:26:54.701Z,68.80
2023-02-11T07:27:57.179Z,70.80
2023-02-11T07:28:59.778Z,57.67
2023-02-11T07:30:04.848Z,69.75
2023-02-11T07:31:16.582Z,62.58
2023-02-11T07:32:19.061Z,63.15
2023-02-11T07:33:21.578Z,61.80
2023-02-11T07:34:24.074Z,63.17
2023-02-11T07:35:26.595Z,65.70
2023-02-11T07:36:32.245Z,65.65
2023-02-11T07:37:35.704Z,61.78
2023-02-11T07:38:39.126Z,66.95
2023-02-11T07:39:43.774Z,67.43
2023-02-11T07:40:46.182Z,70.45
2023-02-11T07:41:49.490Z,68.57
2023-02-11T07:42:52.371Z,66.88
2023-02-11T07:43:55.433Z,62.83
2023-02-11T07:44:57.922Z,63.95
2023-02-11T07:46:03.259Z,59.53
2023-02-11T07:47:05.686Z,71.60
2023-02-11T07:48:08.070Z,69.28
2023-02-11T07:49:11.247Z,65.45
2023-02-11T07:50:13.756Z,70.45
2023-02-11T07:51:21.956Z,83.13
2023-02-11T07:52:24.391Z,91.05
2023-02-11T07:53:26.678Z,92.40
2023-02-11T07:54:29.045Z,104.75
2023-02-11T07:55:31.470Z,88.18
2023-02-11T07:56:34.630Z,81.78
2023-02-11T07:57:37.414Z,80.85
2023-02-11T07:58:42.334Z,81.97
2023-02-11T07:59:44.895Z,74.32
2023-02-11T08:00:47.300Z,72.22
2023-02-11T08:01:51.567Z,67.35
2023-02-11T08:03:57.777Z,65.18
2023-02-11T08:05:00.148Z,71.15
2023-02-11T08:06:07.822Z,66.53
2023-02-11T08:07:10.182Z,69.72
2023-02-11T08:08:12.702Z,59.03
2023-02-11T08:09:19.373Z,62.63
2023-02-11T08:10:23.061Z,63.47
2023-02-11T08:11:28.439Z,66.00
2023-02-11T08:12:30.968Z,67.90
2023-02-11T08:13:33.681Z,62.13
2023-02-11T08:14:36.086Z,69.32
2023-02-11T08:15:38.365Z,71.53
2023-02-11T08:16:41.547Z,70.75
2023-02-11T08:17:44.061Z,61.63
2023-02-11T08:18:47.002Z,64.82
2023-02-11T08:19:49.415Z,78.38
2023-02-11T08:20:51.990Z,72.05
2023-02-11T08:21:58.672Z,62.33
2023-02-11T08:23:02.331Z,61.85
2023-02-11T08:24:04.799Z,65.32
2023-02-11T08:25:07.436Z,60.88
2023-02-11T08:26:13.390Z,66.38
2023-02-11T08:27:16.456Z,63.63
2023-02-11T08:28:19.181Z,67.80
2023-02-11T08:29:21.468Z,61.85
2023-02-11T08:30:26.284Z,61.75
2023-02-11T08:31:34.956Z,64.53
2023-02-11T08:32:37.621Z,63.58
2023-02-11T08:33:42.835Z,66.63
2023-02-11T08:34:48.007Z,68.07
2023-02-11T08:35:50.427Z,90.78
2023-02-11T08:36:52.895Z,74.35
2023-02-11T08:37:55.487Z,77.05
2023-02-11T08:39:18.242Z,96.05
2023-02-11T08:40:21.868Z,92.85
2023-02-11T08:41:24.349Z,74.05
2023-02-11T08:42:26.811Z,71.97
2023-02-11T08:43:29.353Z,73.95
2023-02-11T08:44:31.714Z,74.35
2023-02-11T08:45:34.145Z,113.40
2023-02-11T08:46:36.590Z,77.78
2023-02-11T08:47:39.714Z,82.32
2023-02-11T08:48:42.306Z,71.82
2023-02-11T08:49:44.727Z,73.82
2023-02-11T08:50:47.456Z,73.88
2023-02-11T08:51:50.225Z,72.50
2023-02-11T08:52:52.692Z,67.28
2023-02-11T08:53:55.624Z,70.75
2023-02-11T08:54:58.965Z,68.07
2023-02-11T08:56:01.663Z,73.28
2023-02-11T08:57:04.998Z,71.05
2023-02-11T08:58:07.614Z,71.32
2023-02-11T08:59:14.315Z,73.75
2023-02-11T09:00:17.661Z,63.95
2023-02-11T09:01:27.865Z,66.18
2023-02-11T09:02:30.308Z,63.08
2023-02-11T09:03:32.644Z,69.88
2023-02-11T09:04:35.017Z,65.47
2023-02-11T09:05:48.074Z,65.63
2023-02-11T09:06:50.536Z,74.57
2023-02-11T09:07:53.022Z,67.22
2023-02-11T09:08:57.823Z,77.93
2023-02-11T09:10:00.306Z,76.72
2023-02-11T09:11:03.898Z,76.10
2023-02-11T09:12:06.483Z,74.28
2023-02-11T09:13:09.506Z,79.25
2023-02-11T09:14:21.445Z,72.93
2023-02-11T09:15:23.788Z,80.30
2023-02-11T09:16:28.910Z,74.90
2023-02-11T09:17:31.545Z,70.28
2023-02-11T09:18:34.474Z,78.07
2023-02-11T09:19:36.891Z,66.97
2023-02-11T09:20:40.281Z,68.05
2023-02-11T09:21:42.846Z,75.82
2023-02-11T09:22:45.399Z,83.30
2023-02-11T09:23:48.700Z,87.35
2023-02-11T09:24:51.202Z,74.55
2023-02-11T09:25:53.618Z,75.75
2023-02-11T09:26:55.977Z,78.28
2023-02-11T09:27:58.409Z,71.97
2023-02-11T09:29:01.808Z,66.85
2023-02-11T09:30:04.643Z,75.45
2023-02-11T09:31:11.390Z,65.32
2023-02-11T09:32:14.047Z,59.20
2023-02-11T09:33:16.998Z,70.85
2023-02-11T09:34:19.604Z,76.63
2023-02-11T09:35:22.023Z,73.30
2023-02-11T09:36:27.297Z,73.55
2023-02-11T09:37:29.659Z,59.95
2023-02-11T09:38:32.478Z,63.10
2023-02-11T09:39:34.782Z,74.28
2023-02-11T09:40:37.426Z,69.47
2023-02-11T09:41:45.894Z,65.18
2023-02-11T09:43:03.012Z,71.28
2023-02-11T09:44:10.880Z,69.63
2023-02-11T09:45:22.429Z,67.93
2023-02-11T09:46:27.731Z,69.50
2023-02-11T09:47:36.029Z,72.10
2023-02-11T09:48:44.098Z,70.35
2023-02-11T09:49:51.945Z,68.22
2023-02-11T09:51:00.620Z,72.82
2023-02-11T09:52:15.618Z,69.13
2023-02-11T09:53:25.252Z,70.20
2023-02-11T09:54:37.690Z,61.85
2023-02-11T09:55:43.332Z,70.85
2023-02-11T09:56:46.672Z,71.43
2023-02-11T09:57:49.423Z,76.97
2023-02-11T09:58:53.789Z,84.13
2023-02-11T09:59:57.837Z,82.78
2023-02-11T10:01:28.140Z,77.82
2023-02-11T10:02:30.862Z,74.47
2023-02-11T10:03:43.689Z,72.90
2023-02-11T10:05:29.518Z,67.60
2023-02-11T10:06:38.584Z,61.35
2023-02-11T10:08:02.947Z,66.50
2023-02-11T10:09:38.150Z,58.08
2023-02-11T10:10:44.915Z,66.75
2023-02-11T10:12:05.758Z,72.57
2023-02-11T10:13:10.672Z,55.85
2023-02-11T10:14:35.865Z,68.30
2023-02-11T10:16:09.472Z,60.65
2023-02-11T10:17:21.020Z,67.00
2023-02-11T10:18:39.501Z,65.65
2023-02-11T10:20:20.419Z,62.55
2023-02-11T10:22:07.003Z,68.72
2023-02-11T10:23:16.051Z,61.67
2023-02-11T10:24:19.297Z,69.43
2023-02-11T10:25:37.194Z,55.33
2023-02-11T10:26:43.625Z,65.40
2023-02-11T10:27:46.459Z,69.63
2023-02-11T10:28:53.295Z,61.38
2023-02-11T10:30:16.294Z,68.40
2023-02-11T10:31:27.159Z,67.75
2023-02-11T10:32:50.090Z,64.80
2023-02-11T10:34:10.539Z,65.90
2023-02-11T10:35:23.799Z,63.60
2023-02-11T10:36:35.320Z,62.60
2023-02-11T10:37:37.890Z,68.10
2023-02-11T10:38:40.854Z,66.28
2023-02-11T10:39:43.565Z,69.82
2023-02-11T10:40:46.322Z,63.60
2023-02-11T10:42:01.344Z,79.28
2023-02-11T10:43:12.065Z,61.90
2023-02-11T10:44:29.986Z,69.35
2023-02-11T10:45:38.589Z,66.32
2023-02-11T10:46:40.936Z,68.50
2023-02-11T10:47:44.170Z,72.32
2023-02-11T10:48:53.035Z,68.68
2023-02-11T10:50:03.407Z,61.05
2023-02-11T10:51:25.485Z,67.70
2023-02-11T10:52:30.891Z,67.70
2023-02-11T10:53:34.982Z,72.00
2023-02-11T10:54:37.378Z,70.55
2023-02-11T10:55:49.408Z,53.70
2023-02-11T10:56:59.852Z,64.22
2023-02-11T10:58:03.344Z,66.28
2023-02-11T10:59:14.676Z,67.32
2023-02-11T11:00:27.264Z,68.50
2023-02-11T11:01:52.730Z,65.85
2023-02-11T11:03:00.710Z,62.75
2023-02-11T11:04:03.151Z,65.45
2023-02-11T11:05:20.052Z,61.95
2023-02-11T11:06:31.947Z,66.80
2023-02-11T11:07:34.891Z,65.53
2023-02-11T11:08:48.013Z,66.88
2023-02-11T11:09:55.670Z,67.60
2023-02-11T11:11:09.991Z,68.28
2023-02-11T11:12:41.860Z,71.00
2023-02-11T11:13:53.782Z,63.92
2023-02-11T11:14:59.942Z,68.00
2023-02-11T11:16:14.658Z,61.42
2023-02-11T11:17:19.255Z,63.63
2023-02-11T11:18:23.462Z,68.35
2023-02-11T11:19:27.139Z,58.72
2023-02-11T11:20:33.752Z,65.90
2023-02-11T11:21:45.104Z,67.80
2023-02-11T11:22:50.033Z,82.20
2023-02-11T11:24:03.834Z,74.63
2023-02-11T11:25:20.341Z,91.15
2023-02-11T11:26:24.040Z,74.07
2023-02-11T11:27:26.509Z,82.30
2023-02-11T11:28:31.550Z,84.13
2023-02-11T11:29:46.037Z,87.47
2023-02-11T11:30:49.460Z,79.78
2023-02-11T11:31:57.608Z,77.32
2023-02-11T11:33:01.337Z,52.65
2023-02-11T11:34:23.493Z,56.10
2023-02-11T11:35:31.504Z,59.28
2023-02-11T11:36:39.928Z,67.32
2023-02-11T11:37:42.614Z,58.53
2023-02-11T11:38:52.662Z,65.72
2023-02-11T11:40:03.386Z,59.30
2023-02-11T11:41:26.504Z,58.53
2023-02-11T11:42:34.701Z,55.20
2023-02-11T11:43:37.891Z,61.67
2023-02-11T11:44:40.461Z,55.13
2023-02-11T11:45:58.578Z,68.63
2023-02-11T11:47:13.589Z,55.22
2023-02-11T11:48:24.333Z,65.20
2023-02-11T11:49:34.803Z,64.10
2023-02-11T11:52:27.094Z,58.22
2023-02-11T11:53:51.407Z,57.40
2023-02-11T11:55:05.234Z,55.13
2023-02-11T11:56:14.630Z,62.55
2023-02-11T11:57:22.805Z,59.38
2023-02-11T11:58:25.571Z,56.50
2023-02-11T11:59:29.831Z,61.10
2023-02-11T12:00:51.092Z,54.65
2023-02-11T12:02:27.910Z,64.15
2023-02-11T12:03:55.369Z,57.08
2023-02-11T12:05:18.394Z,63.05
2023-02-11T12:06:26.887Z,244.80
2023-02-11T12:07:59.751Z,65.45
2023-02-11T12:09:17.636Z,58.80
2023-02-11T12:10:32.390Z,62.55
2023-02-11T12:11:34.854Z,57.70
2023-02-11T12:13:03.855Z,64.53
2023-02-11T12:14:46.653Z,63.72
2023-02-11T12:16:16.449Z,56.72
2023-02-11T12:17:38.195Z,45.95
2023-02-11T12:18:50.074Z,60.03
2023-02-11T12:19:56.590Z,58.88
2023-02-11T12:21:10.163Z,58.35
2023-02-11T12:22:18.749Z,52.70
2023-02-11T12:23:42.469Z,60.75
2023-02-11T12:25:22.678Z,59.47
2023-02-11T12:26:49.502Z,60.58
2023-02-11T12:28:07.879Z,59.75
2023-02-11T12:29:26.585Z,63.42
2023-02-11T12:31:14.606Z,57.05
2023-02-11T12:32:34.056Z,52.35
2023-02-11T12:34:07.994Z,56.70
2023-02-11T12:35:19.951Z,46.00
2023-02-11T12:36:40.922Z,57.53
2023-02-11T12:37:53.130Z,54.65
2023-02-11T12:39:29.777Z,48.67
2023-02-11T12:40:41.914Z,55.25
2023-02-11T12:42:29.657Z,47.83
2023-02-11T12:43:41.209Z,74.07
2023-02-11T12:45:12.233Z,64.00
2023-02-11T12:46:25.072Z,61.03
2023-02-11T12:47:33.711Z,58.72
2023-02-11T12:48:51.427Z,59.15
2023-02-11T12:50:07.283Z,75.75
2023-02-11T12:51:21.741Z,57.15
2023-02-11T12:52:39.774Z,55.30
2023-02-11T12:53:51.696Z,58.55
2023-02-11T12:55:09.664Z,49.92
2023-02-11T12:56:24.329Z,46.13
2023-02-11T12:57:33.965Z,57.65
2023-02-11T12:58:45.011Z,50.25
2023-02-11T13:00:02.981Z,53.90
2023-02-11T13:01:16.386Z,52.20
2023-02-11T13:03:04.064Z,55.78
2023-02-11T13:04:09.938Z,56.08
2023-02-11T13:05:34.979Z,51.00
2023-02-11T13:06:43.230Z,52.17
2023-02-11T13:07:46.993Z,61.55
2023-02-11T13:09:02.425Z,57.95
2023-02-11T13:10:14.255Z,58.45
2023-02-11T13:11:41.531Z,57.03
2023-02-11T13:13:05.557Z,52.25
2023-02-11T13:14:22.611Z,68.47
2023-02-11T13:15:26.104Z,57.67
2023-02-11T13:16:38.811Z,65.55
2023-02-11T13:17:55.631Z,60.28
2023-02-11T13:19:04.083Z,56.85
2023-02-11T13:20:27.174Z,54.75
2023-02-11T13:21:38.847Z,57.47
2023-02-11T13:22:52.999Z,53.22
2023-02-11T13:24:22.693Z,74.25
2023-02-11T13:27:20.797Z,51.08
2023-02-11T13:28:24.613Z,54.08
2023-02-11T13:29:35.933Z,60.22
2023-02-11T13:30:47.472Z,66.53
2023-02-11T13:32:05.410Z,59.88
2023-02-11T13:33:21.555Z,59.97
2023-02-11T13:34:44.066Z,58.20
2023-02-11T13:36:07.078Z,54.17
2023-02-11T13:38:39.323Z,48.20
2023-02-11T13:39:42.151Z,51.92
2023-02-11T13:40:47.665Z,57.33
2023-02-11T13:41:52.886Z,50.92
2023-02-11T13:42:58.620Z,54.03
2023-02-11T13:44:09.171Z,48.38
2023-02-11T13:45:28.359Z,54.97
2023-02-11T13:46:56.127Z,45.72
2023-02-11T13:48:02.717Z,57.58
2023-02-11T13:49:05.958Z,49.58
2023-02-11T13:50:21.992Z,51.25
2023-02-11T13:51:38.104Z,55.20
2023-02-11T13:53:53.204Z,59.75
2023-02-11T13:54:59.755Z,64.20
2023-02-11T13:56:12.114Z,60.80
2023-02-11T13:57:21.071Z,53.15
2023-02-11T13:58:30.029Z,60.65
2023-02-11T13:59:33.552Z,56.70
2023-02-11T14:00:36.480Z,49.67
2023-02-11T14:02:23.531Z,54.13
2023-02-11T14:03:51.632Z,52.17
2023-02-11T14:05:22.591Z,45.58
2023-02-11T14:06:47.376Z,52.70
2023-02-11T14:08:30.575Z,49.75
2023-02-11T14:09:38.129Z,46.50
2023-02-11T14:10:44.445Z,52.22
2023-02-11T14:11:51.161Z,52.53
2023-02-11T14:13:22.089Z,60.20
2023-02-11T14:14:36.615Z,55.95
2023-02-11T14:15:41.957Z,61.67
2023-02-11T14:17:00.427Z,57.75
2023-02-11T14:18:24.768Z,54.15
2023-02-11T14:19:52.010Z,57.13
2023-02-11T14:21:12.388Z,61.00
2023-02-11T14:22:26.801Z,64.25
2023-02-11T14:23:29.619Z,64.03
2023-02-11T14:24:33.048Z,63.97
2023-02-11T14:25:39.057Z,58.67
2023-02-11T14:26:44.636Z,57.55
2023-02-11T14:27:52.193Z,54.75
2023-02-11T14:29:27.895Z,56.85
2023-02-11T14:31:16.468Z,54.97
2023-02-11T14:34:00.644Z,128.00
2023-02-11T14:35:26.242Z,104.10
2023-02-11T14:37:06.805Z,71.18
2023-02-11T14:38:32.205Z,60.65
2023-02-11T14:39:45.859Z,58.83
2023-02-11T14:41:02.159Z,61.97
2023-02-11T14:42:05.715Z,53.67
2023-02-11T14:43:26.352Z,56.33
2023-02-11T14:44:34.833Z,57.08
2023-02-11T14:45:38.876Z,51.85
2023-02-11T14:46:46.936Z,62.08
2023-02-11T14:47:56.376Z,60.45
2023-02-11T14:49:02.189Z,60.80
2023-02-11T14:50:15.076Z,64.78
2023-02-11T14:51:28.367Z,60.25